Time;durP1;ratioP1;P1;durP2;ratioP2;P2;SDS_P1;SDS_P2;PMS_P1;PMS_P2;Temp;Humidity;BMP_temperature;BMP_pressure;BME280_temperature;BME280_humidity;BME280_pressure;Samples;Min_cycle;Max_cycle;Signal;HPM_P1;HPM_P2
2023/05/13 00:02:03;;;;;;;11.88;9.93;;;;;;;;;;5023973;28;20484;-87
2023/05/13 00:04:28;;;;;;;11.70;9.70;;;;;;;;;;5020672;28;20026;-87
2023/05/13 00:06:54;;;;;;;13.38;10.05;;;;;;;;;;5021906;28;20502;-86
2023/05/13 00:09:19;;;;;;;13.10;10.00;;;;;;;;;;5022683;28;20038;-86
2023/05/13 00:11:45;;;;;;;12.68;9.63;;;;;;;;;;5020192;28;20026;-86
2023/05/13 00:14:10;;;;;;;13.07;10.32;;;;;;;;;;5003985;28;20040;-86
2023/05/13 00:16:36;;;;;;;12.50;9.45;;;;;;;;;;5028295;28;20042;-86
2023/05/13 00:19:02;;;;;;;12.75;10.55;;;;;;;;;;5017881;28;20088;-86
2023/05/13 00:21:27;;;;;;;14.52;11.13;;;;;;;;;;5018441;28;20042;-86
2023/05/13 00:23:53;;;;;;;14.07;10.85;;;;;;;;;;5018494;28;20647;-86
2023/05/13 00:26:18;;;;;;;14.70;10.85;;;;;;;;;;5018471;28;20491;-86
2023/05/13 00:28:46;;;;;;;16.08;10.90;;;;;;;;;;5026768;28;20049;-86
2023/05/13 00:31:12;;;;;;;13.30;11.00;;;;;;;;;;5019286;28;20070;-86
2023/05/13 00:33:37;;;;;;;16.63;11.07;;;;;;;;;;5032817;28;20037;-86
2023/05/13 00:36:03;;;;;;;15.45;11.77;;;;;;;;;;5018712;28;20038;-87
2023/05/13 00:38:29;;;;;;;15.07;10.50;;;;;;;;;;5029872;28;20480;-85
2023/05/13 00:40:54;;;;;;;14.38;11.18;;;;;;;;;;5018867;28;20034;-86
2023/05/13 00:43:20;;;;;;;12.68;10.85;;;;;;;;;;5017701;28;20044;-86
2023/05/13 00:45:46;;;;;;;14.10;10.88;;;;;;;;;;5017716;28;20086;-86
2023/05/13 00:48:12;;;;;;;15.40;11.55;;;;;;;;;;5008855;28;20053;-86
2023/05/13 00:50:38;;;;;;;12.65;10.32;;;;;;;;;;5018006;28;20069;-86
2023/05/13 00:53:03;;;;;;;14.57;10.00;;;;;;;;;;5032235;28;20038;-85
2023/05/13 00:55:29;;;;;;;12.65;9.93;;;;;;;;;;5002958;28;20037;-85
2023/05/13 00:57:54;;;;;;;12.02;9.23;;;;;;;;;;5019240;28;20034;-86
2023/05/13 01:00:20;;;;;;;12.88;9.45;;;;;;;;;;5035466;28;20037;-87
2023/05/13 01:03:07;;;;;;;14.30;10.35;;;;;;;;;;5008146;28;20116;-87
2023/05/13 01:06:03;;;;;;;14.68;10.00;;;;;;;;;;5019550;28;20025;-86
2023/05/13 01:08:53;;;;;;;13.82;10.02;;;;;;;;;;5016188;28;20048;-86
2023/05/13 01:11:25;;;;;;;14.35;10.38;;;;;;;;;;5005811;28;20518;-86
2023/05/13 01:14:14;;;;;;;13.52;10.27;;;;;;;;;;5032801;28;20107;-86
2023/05/13 01:17:12;;;;;;;14.82;10.77;;;;;;;;;;5019874;28;20171;-87
2023/05/13 01:19:48;;;;;;;11.80;9.15;;;;;;;;;;5019576;28;20446;-87
2023/05/13 01:22:14;;;;;;;12.90;9.98;;;;;;;;;;5018765;28;20063;-86
2023/05/13 01:24:40;;;;;;;11.80;9.10;;;;;;;;;;5031373;28;20025;-86
2023/05/13 01:27:06;;;;;;;15.23;9.75;;;;;;;;;;5021060;28;20118;-86
2023/05/13 01:29:31;;;;;;;12.38;9.43;;;;;;;;;;5034854;28;20419;-86
2023/05/13 01:32:00;;;;;;;12.80;9.48;;;;;;;;;;5018722;28;20041;-87
2023/05/13 01:34:27;;;;;;;11.25;9.30;;;;;;;;;;5017059;28;20511;-86
2023/05/13 01:36:53;;;;;;;12.65;9.70;;;;;;;;;;5018520;28;20038;-87
2023/05/13 01:39:20;;;;;;;12.70;10.07;;;;;;;;;;5011910;28;20156;-86
2023/05/13 01:41:47;;;;;;;12.38;9.98;;;;;;;;;;5016328;28;20038;-87
2023/05/13 01:44:12;;;;;;;11.90;9.80;;;;;;;;;;5017164;28;20393;-86
2023/05/13 01:46:38;;;;;;;11.52;8.80;;;;;;;;;;5034446;28;20037;-86
2023/05/13 01:49:04;;;;;;;11.60;9.20;;;;;;;;;;5012201;28;20198;-87
2023/05/13 01:51:31;;;;;;;11.40;9.30;;;;;;;;;;5010122;28;20495;-86
2023/05/13 01:53:56;;;;;;;11.32;8.80;;;;;;;;;;5027435;28;20029;-87
2023/05/13 01:56:22;;;;;;;11.02;8.60;;;;;;;;;;5019346;28;20121;-86
2023/05/13 01:58:48;;;;;;;11.18;9.38;;;;;;;;;;5029811;28;20136;-86
2023/05/13 02:01:14;;;;;;;12.30;9.57;;;;;;;;;;4987751;28;20496;-87
2023/05/13 02:03:41;;;;;;;11.52;9.02;;;;;;;;;;5028737;28;20566;-87
2023/05/13 02:06:07;;;;;;;10.95;8.98;;;;;;;;;;5005578;28;20042;-86
2023/05/13 02:08:32;;;;;;;18.10;9.90;;;;;;;;;;5017554;28;20534;-87
2023/05/13 02:10:59;;;;;;;16.05;11.10;;;;;;;;;;5033473;28;20037;-86
2023/05/13 02:13:27;;;;;;;12.88;10.38;;;;;;;;;;5013189;28;20029;-86
2023/05/13 02:15:53;;;;;;;15.82;11.05;;;;;;;;;;5017111;28;20040;-86
2023/05/13 02:18:19;;;;;;;13.88;10.85;;;;;;;;;;5014594;28;20049;-86
2023/05/13 02:20:45;;;;;;;15.57;11.65;;;;;;;;;;5016063;28;20044;-86
2023/05/13 02:23:11;;;;;;;16.40;11.20;;;;;;;;;;5030367;28;20042;-86
2023/05/13 02:25:37;;;;;;;15.60;11.27;;;;;;;;;;5017333;28;20034;-86
2023/05/13 02:28:02;;;;;;;15.63;10.95;;;;;;;;;;5026162;28;20060;-86
2023/05/13 02:30:28;;;;;;;16.75;12.23;;;;;;;;;;5031200;28;20041;-86
2023/05/13 02:32:55;;;;;;;16.80;11.35;;;;;;;;;;5031370;28;20038;-86
2023/05/13 02:35:21;;;;;;;14.45;11.00;;;;;;;;;;5017061;28;20037;-86
2023/05/13 02:37:47;;;;;;;16.05;11.70;;;;;;;;;;5015190;28;20034;-85
2023/05/13 02:40:14;;;;;;;15.75;11.57;;;;;;;;;;5014259;28;20025;-86
2023/05/13 02:42:40;;;;;;;15.82;11.27;;;;;;;;;;5006797;28;20034;-86
2023/05/13 02:45:06;;;;;;;16.90;11.82;;;;;;;;;;5010073;28;20036;-86
2023/05/13 02:47:34;;;;;;;18.75;11.30;;;;;;;;;;5013179;28;20164;-86
2023/05/13 02:50:05;;;;;;;15.93;12.05;;;;;;;;;;5000485;28;20038;-86
2023/05/13 02:52:30;;;;;;;14.88;10.73;;;;;;;;;;5028706;28;20041;-86
2023/05/13 02:54:56;;;;;;;15.50;11.55;;;;;;;;;;5030137;28;20034;-85
2023/05/13 02:57:22;;;;;;;16.35;10.98;;;;;;;;;;5012542;28;20046;-86
2023/05/13 02:59:48;;;;;;;15.77;11.32;;;;;;;;;;5014378;28;20048;-86
2023/05/13 03:02:13;;;;;;;16.65;11.70;;;;;;;;;;5013814;28;20403;-86
2023/05/13 03:04:40;;;;;;;14.73;10.32;;;;;;;;;;5013245;28;20060;-86
2023/05/13 03:07:05;;;;;;;14.82;10.73;;;;;;;;;;5014246;28;20041;-86
2023/05/13 03:09:31;;;;;;;16.38;10.38;;;;;;;;;;5018506;28;20037;-85
2023/05/13 03:11:57;;;;;;;13.07;10.15;;;;;;;;;;5016203;28;20049;-85
2023/05/13 03:14:22;;;;;;;14.80;10.27;;;;;;;;;;5015972;28;20057;-86
2023/05/13 03:16:48;;;;;;;16.60;9.88;;;;;;;;;;5032331;28;20072;-86
2023/05/13 03:19:13;;;;;;;18.10;10.20;;;;;;;;;;5017829;28;20052;-87
2023/05/13 03:21:39;;;;;;;14.63;10.02;;;;;;;;;;5020126;28;20038;-86
2023/05/13 03:24:08;;;;;;;12.48;9.25;;;;;;;;;;5032479;28;20040;-87
2023/05/13 03:26:34;;;;;;;13.07;10.50;;;;;;;;;;5017084;28;20037;-86
2023/05/13 03:29:00;;;;;;;14.35;10.57;;;;;;;;;;5032688;28;20410;-86
2023/05/13 03:31:26;;;;;;;13.35;9.70;;;;;;;;;;5017359;28;20033;-87
2023/05/13 03:33:52;;;;;;;13.23;9.98;;;;;;;;;;5031846;28;20041;-86
2023/05/13 03:36:18;;;;;;;13.65;10.48;;;;;;;;;;5011846;28;20030;-86
2023/05/13 03:38:43;;;;;;;15.27;11.07;;;;;;;;;;5013445;28;20076;-85
2023/05/13 03:41:09;;;;;;;13.88;10.15;;;;;;;;;;5014874;28;20079;-86
2023/05/13 03:43:34;;;;;;;16.73;11.48;;;;;;;;;;5020700;28;20369;-85
2023/05/13 03:46:04;;;;;;;19.65;11.48;;;;;;;;;;5008675;28;20387;-86
2023/05/13 03:48:30;;;;;;;18.42;12.00;;;;;;;;;;5012495;28;20034;-85
2023/05/13 03:50:58;;;;;;;16.23;11.70;;;;;;;;;;5013587;28;20450;-85
2023/05/13 03:53:24;;;;;;;15.35;10.80;;;;;;;;;;5013738;28;20025;-85
2023/05/13 03:55:51;;;;;;;16.02;11.60;;;;;;;;;;5031383;28;20038;-85
2023/05/13 03:58:17;;;;;;;16.63;11.48;;;;;;;;;;5009577;28;20030;-85
2023/05/13 04:00:46;;;;;;;17.15;12.23;;;;;;;;;;5012870;28;20040;-85
2023/05/13 04:03:14;;;;;;;16.65;12.38;;;;;;;;;;5000635;28;20121;-85
2023/05/13 04:05:41;;;;;;;22.40;13.15;;;;;;;;;;5014874;28;20164;-85
2023/05/13 04:08:06;;;;;;;19.38;12.82;;;;;;;;;;5023875;28;20060;-86
2023/05/13 04:10:32;;;;;;;20.60;13.18;;;;;;;;;;5010290;28;20120;-86
2023/05/13 04:12:57;;;;;;;20.63;12.68;;;;;;;;;;5016369;28;20121;-85
2023/05/13 04:15:23;;;;;;;21.05;13.32;;;;;;;;;;5003968;28;20037;-86
2023/05/13 04:17:48;;;;;;;20.63;14.07;;;;;;;;;;5030771;28;20072;-86
2023/05/13 04:20:14;;;;;;;23.02;14.60;;;;;;;;;;5003170;28;20152;-86
2023/05/13 04:22:39;;;;;;;22.52;14.48;;;;;;;;;;5020959;28;20030;-86
2023/05/13 04:25:06;;;;;;;23.95;15.25;;;;;;;;;;5029785;28;20037;-85
2023/05/13 04:27:31;;;;;;;23.00;14.65;;;;;;;;;;5030512;28;20080;-86
2023/05/13 04:30:05;;;;;;;24.98;14.77;;;;;;;;;;5009451;28;20034;-85
2023/05/13 04:32:32;;;;;;;38.42;22.52;;;;;;;;;;5012660;28;20210;-85
2023/05/13 04:34:58;;;;;;;28.90;18.63;;;;;;;;;;5012280;28;20440;-86
2023/05/13 04:37:25;;;;;;;24.63;14.80;;;;;;;;;;5029505;28;20037;-85
2023/05/13 04:39:54;;;;;;;21.65;14.35;;;;;;;;;;5009394;28;20061;-86
2023/05/13 04:42:22;;;;;;;20.17;14.18;;;;;;;;;;5009710;28;20032;-85
2023/05/13 04:44:47;;;;;;;23.58;14.60;;;;;;;;;;5017697;28;20022;-85
2023/05/13 04:47:13;;;;;;;19.98;13.38;;;;;;;;;;5010171;28;20032;-86
2023/05/13 04:49:38;;;;;;;19.58;13.40;;;;;;;;;;5016661;28;20030;-86
2023/05/13 04:52:05;;;;;;;24.95;14.25;;;;;;;;;;5028809;28;20384;-85
2023/05/13 04:54:34;;;;;;;19.92;12.95;;;;;;;;;;5011951;28;20525;-85
2023/05/13 04:57:00;;;;;;;20.77;13.10;;;;;;;;;;5006347;28;20060;-85
2023/05/13 04:59:26;;;;;;;20.00;12.98;;;;;;;;;;5021000;28;20030;-86
2023/05/13 05:01:52;;;;;;;18.42;12.18;;;;;;;;;;5013310;28;20040;-86
2023/05/13 05:04:18;;;;;;;16.15;12.07;;;;;;;;;;5013073;28;20021;-86
2023/05/13 05:06:44;;;;;;;18.20;11.95;;;;;;;;;;5001299;28;20080;-86
2023/05/13 05:09:10;;;;;;;17.70;11.75;;;;;;;;;;5024067;28;20022;-86
2023/05/13 05:11:37;;;;;;;20.17;12.50;;;;;;;;;;5020330;28;20076;-86
2023/05/13 05:14:02;;;;;;;20.38;12.88;;;;;;;;;;5016442;28;20462;-86
2023/05/13 05:16:28;;;;;;;17.25;12.23;;;;;;;;;;5028841;28;20033;-85
2023/05/13 05:18:56;;;;;;;16.48;11.35;;;;;;;;;;5028076;28;20387;-85
2023/05/13 05:21:21;;;;;;;16.45;11.93;;;;;;;;;;5011124;28;20041;-86
2023/05/13 05:23:48;;;;;;;17.23;11.82;;;;;;;;;;5011229;28;20479;-86
2023/05/13 05:26:13;;;;;;;16.25;10.98;;;;;;;;;;5021343;28;20025;-86
2023/05/13 05:28:42;;;;;;;16.40;11.50;;;;;;;;;;5024114;28;20518;-86
2023/05/13 05:31:08;;;;;;;16.63;11.25;;;;;;;;;;5007853;28;20026;-86
2023/05/13 05:33:35;;;;;;;14.25;10.13;;;;;;;;;;5026912;28;20022;-87
2023/05/13 05:36:00;;;;;;;17.80;10.50;;;;;;;;;;5027198;28;20510;-85
2023/05/13 05:38:26;;;;;;;17.60;10.50;;;;;;;;;;5013646;28;20029;-86
2023/05/13 05:40:54;;;;;;;16.63;11.02;;;;;;;;;;5011935;28;20053;-86
2023/05/13 05:43:20;;;;;;;16.20;11.25;;;;;;;;;;5022398;28;20391;-85
2023/05/13 05:45:45;;;;;;;15.20;10.00;;;;;;;;;;5023828;28;20026;-85
2023/05/13 05:48:15;;;;;;;14.60;9.95;;;;;;;;;;4998839;28;20026;-85
2023/05/13 05:50:41;;;;;;;14.40;9.60;;;;;;;;;;5026605;28;20042;-85
2023/05/13 05:53:09;;;;;;;19.77;12.48;;;;;;;;;;5024705;28;20439;-86
2023/05/13 05:55:37;;;;;;;19.90;12.60;;;;;;;;;;5009632;28;20100;-85
2023/05/13 05:58:04;;;;;;;16.80;11.55;;;;;;;;;;5011778;28;20455;-84
2023/05/13 06:00:32;;;;;;;17.30;11.23;;;;;;;;;;5028413;28;20448;-84
2023/05/13 06:02:57;;;;;;;13.43;10.30;;;;;;;;;;5026589;28;20434;-85
2023/05/13 06:05:23;;;;;;;15.50;10.90;;;;;;;;;;5027495;28;20479;-87
2023/05/13 06:07:48;;;;;;;15.65;10.32;;;;;;;;;;5026109;28;20087;-85
2023/05/13 06:10:14;;;;;;;15.20;9.90;;;;;;;;;;5009884;28;20502;-85
2023/05/13 06:12:40;;;;;;;14.25;9.68;;;;;;;;;;5012116;28;20482;-85
2023/05/13 06:15:11;;;;;;;13.55;9.43;;;;;;;;;;5001994;28;20031;-85
2023/05/13 06:17:37;;;;;;;15.07;10.55;;;;;;;;;;5010641;28;20107;-85
2023/05/13 06:20:05;;;;;;;16.77;11.50;;;;;;;;;;5025384;28;20041;-84
2023/05/13 06:22:30;;;;;;;12.75;7.28;;;;;;;;;;4999595;28;20034;-85
2023/05/13 06:24:56;;;;;;;12.75;8.75;;;;;;;;;;5012871;28;20026;-85
2023/05/13 06:27:22;;;;;;;13.82;8.82;;;;;;;;;;5015864;28;20031;-85
2023/05/13 06:29:47;;;;;;;13.30;8.88;;;;;;;;;;5014949;28;20145;-84
2023/05/13 06:32:14;;;;;;;13.30;8.55;;;;;;;;;;5012232;28;20487;-85
2023/05/13 06:34:44;;;;;;;11.57;8.70;;;;;;;;;;5014072;28;20038;-84
2023/05/13 06:37:11;;;;;;;12.07;8.52;;;;;;;;;;5015838;28;20037;-84
2023/05/13 06:39:37;;;;;;;12.57;9.00;;;;;;;;;;5026853;28;20491;-86
2023/05/13 06:42:03;;;;;;;15.07;9.80;;;;;;;;;;5009526;28;20030;-86
2023/05/13 06:44:32;;;;;;;12.63;8.60;;;;;;;;;;5007872;28;20028;-86
2023/05/13 06:46:57;;;;;;;14.02;9.75;;;;;;;;;;5028802;28;20049;-86
2023/05/13 06:49:26;;;;;;;13.93;9.60;;;;;;;;;;5027602;28;20040;-85
2023/05/13 06:51:52;;;;;;;30.40;16.75;;;;;;;;;;5010386;28;20034;-87
2023/05/13 06:54:18;;;;;;;16.58;11.05;;;;;;;;;;5027544;28;20471;-87
2023/05/13 06:56:43;;;;;;;24.10;13.75;;;;;;;;;;5013294;28;20037;-87
2023/05/13 06:59:09;;;;;;;17.77;11.95;;;;;;;;;;5011766;28;20457;-85
2023/05/13 07:01:34;;;;;;;16.10;11.40;;;;;;;;;;5012769;28;20083;-85
2023/05/13 07:04:00;;;;;;;17.10;10.32;;;;;;;;;;5012495;28;20371;-85
2023/05/13 07:06:25;;;;;;;15.57;10.48;;;;;;;;;;5012731;28;20041;-86
2023/05/13 07:08:51;;;;;;;17.08;11.75;;;;;;;;;;5023724;28;20080;-85
2023/05/13 07:11:17;;;;;;;15.45;10.73;;;;;;;;;;5011837;28;20037;-86
2023/05/13 07:13:43;;;;;;;14.52;9.88;;;;;;;;;;5015108;28;20057;-86
2023/05/13 07:16:08;;;;;;;15.18;10.10;;;;;;;;;;5017532;28;20048;-86
2023/05/13 07:18:34;;;;;;;15.65;10.50;;;;;;;;;;5017770;28;20121;-87
2023/05/13 07:20:59;;;;;;;14.75;10.48;;;;;;;;;;5018134;28;20029;-86
2023/05/13 07:23:25;;;;;;;13.75;9.48;;;;;;;;;;5032651;28;20056;-86
2023/05/13 07:25:51;;;;;;;13.02;8.85;;;;;;;;;;5010366;28;20038;-85
2023/05/13 07:28:19;;;;;;;11.57;8.05;;;;;;;;;;5018751;28;20030;-86
2023/05/13 07:30:46;;;;;;;9.68;6.93;;;;;;;;;;5014341;28;20042;-86
2023/05/13 07:33:11;;;;;;;11.60;7.65;;;;;;;;;;4999579;28;20046;-86
2023/05/13 07:35:37;;;;;;;11.45;6.75;;;;;;;;;;5033738;28;20140;-86
2023/05/13 07:38:03;;;;;;;10.13;7.53;;;;;;;;;;5016750;28;20041;-85
2023/05/13 07:40:28;;;;;;;12.63;9.00;;;;;;;;;;5018718;28;20143;-85
2023/05/13 07:42:54;;;;;;;8.02;5.57;;;;;;;;;;5020372;28;20040;-86
2023/05/13 07:45:19;;;;;;;12.38;7.50;;;;;;;;;;5016858;28;20065;-86
2023/05/13 07:47:45;;;;;;;6.93;4.85;;;;;;;;;;5015579;28;20044;-86
2023/05/13 07:50:11;;;;;;;8.40;5.47;;;;;;;;;;5016050;28;20044;-86
2023/05/13 07:52:37;;;;;;;6.43;4.13;;;;;;;;;;5031383;28;20051;-86
2023/05/13 07:55:03;;;;;;;5.78;4.18;;;;;;;;;;5013748;28;20048;-88
2023/05/13 07:57:28;;;;;;;5.20;4.10;;;;;;;;;;5015462;28;20384;-88
2023/05/13 07:59:54;;;;;;;7.90;4.53;;;;;;;;;;5015012;28;20045;-88
2023/05/13 08:02:19;;;;;;;7.57;5.35;;;;;;;;;;5015026;28;20065;-88
2023/05/13 08:04:45;;;;;;;9.35;5.50;;;;;;;;;;5012968;28;20469;-88
2023/05/13 08:07:10;;;;;;;7.28;4.53;;;;;;;;;;5016929;28;20049;-87
2023/05/13 08:09:36;;;;;;;8.50;5.18;;;;;;;;;;5026840;28;20048;-88
2023/05/13 08:12:02;;;;;;;9.25;6.45;;;;;;;;;;5006566;28;20049;-89
2023/05/13 08:14:28;;;;;;;8.70;5.45;;;;;;;;;;5014692;28;20128;-88
2023/05/13 08:16:53;;;;;;;6.90;5.32;;;;;;;;;;5015587;28;20041;-88
2023/05/13 08:19:19;;;;;;;8.45;4.40;;;;;;;;;;5013318;28;20042;-89
2023/05/13 08:21:45;;;;;;;6.63;4.95;;;;;;;;;;5015616;28;20476;-88
2023/05/13 08:24:11;;;;;;;8.77;4.75;;;;;;;;;;5014997;28;20037;-87
2023/05/13 08:26:36;;;;;;;6.70;4.97;;;;;;;;;;5040597;28;20034;-88
2023/05/13 08:29:02;;;;;;;5.72;4.15;;;;;;;;;;5025566;28;20038;-87
2023/05/13 08:31:27;;;;;;;6.35;4.97;;;;;;;;;;5034585;28;20480;-88
2023/05/13 08:33:53;;;;;;;6.43;5.15;;;;;;;;;;5023187;28;20041;-87
2023/05/13 08:36:19;;;;;;;7.75;6.15;;;;;;;;;;5024469;28;20052;-87
2023/05/13 08:38:45;;;;;;;8.95;6.30;;;;;;;;;;5023964;28;20041;-87
2023/05/13 08:41:14;;;;;;;9.80;6.78;;;;;;;;;;5019952;28;20306;-87
2023/05/13 08:43:42;;;;;;;8.52;7.03;;;;;;;;;;5021977;28;20039;-87
2023/05/13 08:46:11;;;;;;;9.70;7.00;;;;;;;;;;5023611;28;20033;-86
2023/05/13 08:48:40;;;;;;;8.98;6.70;;;;;;;;;;5020208;28;20046;-87
2023/05/13 08:51:07;;;;;;;12.15;8.02;;;;;;;;;;5038999;28;20037;-87
2023/05/13 08:53:38;;;;;;;11.07;6.63;;;;;;;;;;5014395;28;20042;-87
2023/05/13 08:56:04;;;;;;;10.25;7.15;;;;;;;;;;5018884;28;20038;-87
2023/05/13 08:58:30;;;;;;;8.80;6.75;;;;;;;;;;5022347;28;20044;-87
2023/05/13 09:00:57;;;;;;;10.27;7.18;;;;;;;;;;5038776;28;20093;-86
2023/05/13 09:03:24;;;;;;;10.35;7.57;;;;;;;;;;5023630;28;20042;-86
2023/05/13 09:05:50;;;;;;;10.52;6.55;;;;;;;;;;5023210;28;20425;-87
2023/05/13 09:08:15;;;;;;;9.02;5.90;;;;;;;;;;5019355;28;20050;-86
2023/05/13 09:10:41;;;;;;;7.55;5.50;;;;;;;;;;5022054;28;20033;-87
2023/05/13 09:13:07;;;;;;;8.13;5.93;;;;;;;;;;5018449;28;20037;-87
2023/05/13 09:15:32;;;;;;;7.88;5.65;;;;;;;;;;5022740;28;20037;-86
2023/05/13 09:17:59;;;;;;;7.68;5.32;;;;;;;;;;5021120;28;20072;-86
2023/05/13 09:20:25;;;;;;;6.72;4.60;;;;;;;;;;5019724;28;20514;-86
2023/05/13 09:23:04;;;;;;;5.50;4.25;;;;;;;;;;5022466;28;20033;-86
2023/05/13 09:25:30;;;;;;;5.40;4.32;;;;;;;;;;5022025;28;20041;-86
2023/05/13 09:28:00;;;;;;;6.25;4.35;;;;;;;;;;5023347;28;20098;-86
2023/05/13 09:30:31;;;;;;;10.20;4.55;;;;;;;;;;5022168;28;20516;-87
2023/05/13 09:33:07;;;;;;;5.22;4.50;;;;;;;;;;5036629;28;20042;-85
2023/05/13 09:35:33;;;;;;;5.85;4.90;;;;;;;;;;5021700;28;20042;-86
2023/05/13 09:37:59;;;;;;;7.50;5.38;;;;;;;;;;5017048;28;20030;-87
2023/05/13 09:40:24;;;;;;;6.10;4.88;;;;;;;;;;5038021;28;20091;-87
2023/05/13 09:42:50;;;;;;;9.27;5.75;;;;;;;;;;5023200;28;20037;-87
2023/05/13 09:45:16;;;;;;;8.48;5.60;;;;;;;;;;5022705;28;20029;-86
2023/05/13 09:47:42;;;;;;;7.80;5.47;;;;;;;;;;5022691;28;20511;-86
2023/05/13 09:50:10;;;;;;;6.97;5.10;;;;;;;;;;5038172;28;20040;-86
2023/05/13 09:52:36;;;;;;;7.43;4.80;;;;;;;;;;5037730;28;20030;-87
2023/05/13 09:55:04;;;;;;;6.97;5.15;;;;;;;;;;5031182;28;20038;-86
2023/05/13 09:57:32;;;;;;;6.03;4.63;;;;;;;;;;5002717;28;20053;-85
2023/05/13 10:00:04;;;;;;;5.80;4.55;;;;;;;;;;5021304;28;20467;-86
2023/05/13 10:02:37;;;;;;;6.13;4.65;;;;;;;;;;5022523;28;20044;-86
2023/05/13 10:05:04;;;;;;;5.50;4.20;;;;;;;;;;5021712;28;20032;-87
2023/05/13 10:07:32;;;;;;;6.60;5.00;;;;;;;;;;5029646;28;20423;-86
2023/05/13 10:10:01;;;;;;;6.50;5.25;;;;;;;;;;5022495;28;20025;-87
2023/05/13 10:12:29;;;;;;;6.82;5.43;;;;;;;;;;5021543;28;20030;-86
2023/05/13 10:14:55;;;;;;;7.50;5.40;;;;;;;;;;5021953;28;20053;-87
2023/05/13 10:17:23;;;;;;;8.32;5.80;;;;;;;;;;5021922;28;20038;-87
2023/05/13 10:19:50;;;;;;;10.48;6.00;;;;;;;;;;5021996;28;20033;-87
2023/05/13 10:22:26;;;;;;;9.90;6.60;;;;;;;;;;5023171;28;20068;-87
2023/05/13 10:24:52;;;;;;;9.00;5.72;;;;;;;;;;5023985;28;20065;-87
2023/05/13 10:27:21;;;;;;;8.02;6.50;;;;;;;;;;5022745;28;20029;-87
2023/05/13 10:29:49;;;;;;;9.52;6.05;;;;;;;;;;5017697;28;20111;-87
2023/05/13 10:32:15;;;;;;;9.18;6.78;;;;;;;;;;5023016;28;20415;-87
2023/05/13 10:34:42;;;;;;;10.88;6.43;;;;;;;;;;5021480;28;20034;-87
2023/05/13 10:37:26;;;;;;;11.73;6.00;;;;;;;;;;5036812;28;20488;-87
2023/05/13 10:40:18;;;;;;;7.82;5.72;;;;;;;;;;5020906;28;20038;-87
2023/05/13 10:42:59;;;;;;;10.63;6.07;;;;;;;;;;5002260;28;20057;-87
2023/05/13 10:45:26;;;;;;;7.57;5.75;;;;;;;;;;5020306;28;20104;-88
2023/05/13 10:47:53;;;;;;;7.57;5.40;;;;;;;;;;5021595;28;20049;-87
2023/05/13 10:50:23;;;;;;;6.32;5.10;;;;;;;;;;5021010;28;20076;-87
2023/05/13 10:52:50;;;;;;;6.90;5.35;;;;;;;;;;5006657;28;20129;-87
2023/05/13 10:55:18;;;;;;;7.82;5.40;;;;;;;;;;5020309;28;20120;-87
2023/05/13 10:58:11;;;;;;;6.97;5.50;;;;;;;;;;5019164;28;20034;-87
2023/05/13 11:00:41;;;;;;;6.60;5.38;;;;;;;;;;5019507;28;20717;-88
2023/05/13 11:03:27;;;;;;;7.00;5.70;;;;;;;;;;5036058;28;20110;-87
2023/05/13 11:06:12;;;;;;;6.47;5.20;;;;;;;;;;5023042;28;20113;-87
2023/05/13 11:08:49;;;;;;;6.20;5.13;;;;;;;;;;5022822;28;20030;-87
2023/05/13 11:11:22;;;;;;;6.93;5.20;;;;;;;;;;5022594;28;20034;-87
2023/05/13 11:14:15;;;;;;;7.20;5.20;;;;;;;;;;5022021;28;20507;-88
2023/05/13 11:17:05;;;;;;;5.65;4.68;;;;;;;;;;5037514;28;20449;-87
2023/05/13 11:19:36;;;;;;;6.43;4.68;;;;;;;;;;5017830;28;20424;-87
2023/05/13 11:22:11;;;;;;;5.47;4.60;;;;;;;;;;5023398;28;20045;-87
2023/05/13 11:24:36;;;;;;;6.45;4.63;;;;;;;;;;5023414;28;20065;-87
2023/05/13 11:27:19;;;;;;;6.20;4.60;;;;;;;;;;5020887;28;20042;-87
2023/05/13 11:29:55;;;;;;;5.10;4.53;;;;;;;;;;5022780;28;20030;-87
2023/05/13 11:32:52;;;;;;;5.85;4.50;;;;;;;;;;5022381;28;20091;-88
2023/05/13 11:35:23;;;;;;;8.40;5.88;;;;;;;;;;5036529;28;20599;-87
2023/05/13 11:37:48;;;;;;;7.15;5.35;;;;;;;;;;5023202;28;20484;-87
2023/05/13 11:40:27;;;;;;;6.38;4.40;;;;;;;;;;5023563;28;20030;-87
2023/05/13 11:42:53;;;;;;;5.05;4.30;;;;;;;;;;5037209;28;20026;-87
2023/05/13 11:45:21;;;;;;;6.03;4.35;;;;;;;;;;5019596;28;20526;-87
2023/05/13 11:47:47;;;;;;;5.93;4.78;;;;;;;;;;5023177;28;20030;-87
2023/05/13 11:50:22;;;;;;;6.05;4.82;;;;;;;;;;5017597;28;20073;-87
2023/05/13 11:52:51;;;;;;;6.07;4.55;;;;;;;;;;5023126;28;20563;-87
2023/05/13 11:55:31;;;;;;;6.82;4.60;;;;;;;;;;5014271;28;20038;-86
2023/05/13 11:58:00;;;;;;;6.28;4.30;;;;;;;;;;5026638;28;20028;-88
2023/05/13 12:00:34;;;;;;;6.03;4.35;;;;;;;;;;5027175;28;20037;-89
2023/05/13 12:03:07;;;;;;;6.28;4.20;;;;;;;;;;5016210;28;20412;-87
2023/05/13 12:05:33;;;;;;;5.88;4.70;;;;;;;;;;5041133;28;20105;-88
2023/05/13 12:07:58;;;;;;;6.95;4.60;;;;;;;;;;5025797;28;20076;-88
2023/05/13 12:10:24;;;;;;;5.13;4.07;;;;;;;;;;5024594;28;20037;-88
2023/05/13 12:12:50;;;;;;;4.90;3.78;;;;;;;;;;5023134;28;20571;-87
2023/05/13 12:15:17;;;;;;;7.53;4.68;;;;;;;;;;5024660;28;20057;-87
2023/05/13 12:17:43;;;;;;;4.57;3.65;;;;;;;;;;5026523;28;20046;-88
2023/05/13 12:20:10;;;;;;;5.10;3.78;;;;;;;;;;5026499;28;20034;-88
2023/05/13 12:22:41;;;;;;;3.92;3.38;;;;;;;;;;5037216;28;20093;-84
2023/05/13 12:25:32;;;;;;;4.30;3.40;;;;;;;;;;5018659;28;20042;-87
2023/05/13 12:27:58;;;;;;;3.80;3.33;;;;;;;;;;5021245;28;20513;-84
2023/05/13 12:30:24;;;;;;;4.28;3.58;;;;;;;;;;5017258;28;20064;-84
2023/05/13 12:32:49;;;;;;;5.25;3.33;;;;;;;;;;5015727;28;20050;-83
2023/05/13 12:35:15;;;;;;;4.05;3.47;;;;;;;;;;5016017;28;20042;-84
2023/05/13 12:37:40;;;;;;;4.85;3.58;;;;;;;;;;5016532;28;20073;-84
2023/05/13 12:40:13;;;;;;;4.85;3.53;;;;;;;;;;5015608;28;20683;-85
2023/05/13 12:42:45;;;;;;;3.65;3.20;;;;;;;;;;5031335;28;20038;-85
2023/05/13 12:45:11;;;;;;;4.25;3.10;;;;;;;;;;5031525;28;20048;-84
2023/05/13 12:47:49;;;;;;;3.83;2.88;;;;;;;;;;5016269;28;20018;-83
2023/05/13 12:50:15;;;;;;;3.55;2.75;;;;;;;;;;5016669;28;20033;-82
2023/05/13 12:52:40;;;;;;;5.18;2.80;;;;;;;;;;5033732;28;20491;-84
2023/05/13 12:55:06;;;;;;;3.63;2.40;;;;;;;;;;5015393;28;20602;-85
2023/05/13 12:57:32;;;;;;;4.05;2.50;;;;;;;;;;5031480;28;20179;-83
2023/05/13 12:59:57;;;;;;;2.50;2.22;;;;;;;;;;5015752;28;20110;-83
2023/05/13 13:02:22;;;;;;;2.90;2.38;;;;;;;;;;5015748;28;20041;-84
2023/05/13 13:04:48;;;;;;;3.90;2.15;;;;;;;;;;5031324;28;20400;-83
2023/05/13 13:07:13;;;;;;;3.00;2.50;;;;;;;;;;5015326;28;20125;-85
2023/05/13 13:09:39;;;;;;;2.95;2.45;;;;;;;;;;5023294;28;20042;-83
2023/05/13 13:12:05;;;;;;;3.38;2.58;;;;;;;;;;5031045;28;20033;-84
2023/05/13 13:14:30;;;;;;;3.83;2.90;;;;;;;;;;5015937;28;20407;-84
2023/05/13 13:16:56;;;;;;;3.30;2.47;;;;;;;;;;5016671;28;20100;-85
2023/05/13 13:19:21;;;;;;;5.88;2.60;;;;;;;;;;5016649;28;20069;-83
2023/05/13 13:21:47;;;;;;;3.00;2.50;;;;;;;;;;5031494;28;20816;-85
2023/05/13 13:24:12;;;;;;;2.80;2.50;;;;;;;;;;5030418;28;20034;-84
2023/05/13 13:26:38;;;;;;;2.92;2.53;;;;;;;;;;5014809;28;20034;-86
2023/05/13 13:29:03;;;;;;;2.60;2.40;;;;;;;;;;5015052;28;20037;-84
2023/05/13 13:31:29;;;;;;;2.92;2.40;;;;;;;;;;5028882;28;20215;-84
2023/05/13 13:33:56;;;;;;;2.95;2.60;;;;;;;;;;5030109;28;20048;-84
2023/05/13 13:36:21;;;;;;;3.45;2.50;;;;;;;;;;5013791;28;20081;-85
2023/05/13 13:38:47;;;;;;;3.40;2.20;;;;;;;;;;5029627;28;20045;-85
2023/05/13 13:41:12;;;;;;;2.85;2.25;;;;;;;;;;5022857;28;20038;-86
2023/05/13 13:43:38;;;;;;;3.10;2.40;;;;;;;;;;5014655;28;20412;-83
2023/05/13 13:46:03;;;;;;;2.90;2.08;;;;;;;;;;5030679;28;20109;-84
2023/05/13 13:48:28;;;;;;;2.30;2.10;;;;;;;;;;5014563;28;20042;-84
2023/05/13 13:50:54;;;;;;;2.42;2.22;;;;;;;;;;5013258;28;20064;-83
2023/05/13 13:53:20;;;;;;;3.13;2.25;;;;;;;;;;5029852;28;20558;-83
2023/05/13 13:55:46;;;;;;;2.20;2.00;;;;;;;;;;5006290;28;20046;-84
2023/05/13 13:58:11;;;;;;;2.30;2.00;;;;;;;;;;5014471;28;20037;-86
2023/05/13 14:00:37;;;;;;;3.75;2.00;;;;;;;;;;5030066;28;20491;-83
2023/05/13 14:03:02;;;;;;;2.30;1.88;;;;;;;;;;5013610;28;20042;-83
2023/05/13 14:05:28;;;;;;;2.90;1.70;;;;;;;;;;5014938;28;20518;-83
2023/05/13 14:07:54;;;;;;;1.83;1.70;;;;;;;;;;5015280;28;20045;-83
2023/05/13 14:10:20;;;;;;;2.70;1.80;;;;;;;;;;5029764;28;20113;-84
2023/05/13 14:12:46;;;;;;;2.25;2.00;;;;;;;;;;5005804;28;20510;-84
2023/05/13 14:15:12;;;;;;;4.22;1.98;;;;;;;;;;5022941;28;20040;-85
2023/05/13 14:17:37;;;;;;;2.78;1.80;;;;;;;;;;5024589;28;20132;-82
2023/05/13 14:20:03;;;;;;;3.45;2.10;;;;;;;;;;5014759;28;20127;-84
2023/05/13 14:22:29;;;;;;;3.70;2.00;;;;;;;;;;5027786;28;20034;-84
2023/05/13 14:24:54;;;;;;;2.30;1.95;;;;;;;;;;5011983;28;20057;-86
2023/05/13 14:27:20;;;;;;;3.72;1.58;;;;;;;;;;5016506;28;20097;-86
2023/05/13 14:29:46;;;;;;;2.10;1.70;;;;;;;;;;5030310;28;20038;-87
2023/05/13 14:32:12;;;;;;;2.67;1.60;;;;;;;;;;5015990;28;20124;-86
2023/05/13 14:34:38;;;;;;;1.92;1.42;;;;;;;;;;5014544;28;20038;-86